createdAt,value
2018-12-30T00:00:00.414Z,92.65
2018-12-30T00:01:00.091Z,92.64
2018-12-30T00:02:01.078Z,92.66
2018-12-30T00:03:01.099Z,92.68
2018-12-30T00:04:00.630Z,92.74
2018-12-30T00:05:00.796Z,92.74
2018-12-30T00:06:00.956Z,92.75
2018-12-30T00:06:59.966Z,92.77
2018-12-30T00:08:00.149Z,92.73
2018-12-30T00:09:01.069Z,92.79
2018-12-30T00:10:00.332Z,92.81
2018-12-30T00:11:01.168Z,92.82
2018-12-30T00:11:59.853Z,92.85
2018-12-30T00:13:00.641Z,92.84
2018-12-30T00:13:59.961Z,92.85
2018-12-30T00:15:02.360Z,92.84
2018-12-30T00:16:00.604Z,92.83
2018-12-30T00:16:59.795Z,92.9
2018-12-30T00:18:00.083Z,92.91
2018-12-30T00:19:00.020Z,92.79
2018-12-30T00:19:59.882Z,92.79
2018-12-30T00:20:59.882Z,92.93
2018-12-30T00:22:00.748Z,92.92
2018-12-30T00:23:00.006Z,92.95
2018-12-30T00:24:00.162Z,92.96
2018-12-30T00:24:59.813Z,92.9
2018-12-30T00:25:59.820Z,92.95
2018-12-30T00:26:59.839Z,92.98
2018-12-30T00:28:00.203Z,93.03
2018-12-30T00:28:59.844Z,92.81
2018-12-30T00:30:00.363Z,92.97
2018-12-30T00:30:59.906Z,92.97
2018-12-30T00:31:59.904Z,93.04
2018-12-30T00:32:59.914Z,93.03
2018-12-30T00:33:59.814Z,93.09
2018-12-30T00:35:00.235Z,93.01
2018-12-30T00:36:00.090Z,93.07
2018-12-30T00:36:59.870Z,93.11
2018-12-30T00:37:59.911Z,93.11
2018-12-30T00:39:00.798Z,93.11
2018-12-30T00:39:59.961Z,93
2018-12-30T00:41:00.004Z,93.06
2018-12-30T00:41:59.848Z,93.04
2018-12-30T00:42:59.830Z,92.97
2018-12-30T00:43:59.787Z,92.98
2018-12-30T00:45:00.391Z,93.02
2018-12-30T00:46:00.144Z,92.99
2018-12-30T00:47:00.718Z,92.96
2018-12-30T00:47:59.747Z,92.99
2018-12-30T00:49:00.337Z,93.04
2018-12-30T00:50:00.376Z,93.01
2018-12-30T00:50:59.843Z,93.02
2018-12-30T00:52:00.003Z,93.01
2018-12-30T00:52:59.987Z,93.02
2018-12-30T00:53:59.966Z,92.97
2018-12-30T00:55:00.519Z,92.95
2018-12-30T00:56:00.144Z,92.92
2018-12-30T00:57:00.228Z,92.92
2018-12-30T00:58:00.053Z,92.87
2018-12-30T00:59:00.163Z,92.91
2018-12-30T01:00:00.260Z,92.93
2018-12-30T01:00:59.861Z,92.96
2018-12-30T01:01:59.866Z,92.93
2018-12-30T01:02:59.972Z,92.89
2018-12-30T01:04:00.273Z,92.83
2018-12-30T01:04:59.887Z,92.78
2018-12-30T01:06:00.253Z,92.79
2018-12-30T01:06:59.844Z,92.8
2018-12-30T01:08:00.056Z,92.77
2018-12-30T01:08:59.899Z,92.74
2018-12-30T01:09:59.848Z,92.8
2018-12-30T01:10:59.816Z,92.8
2018-12-30T01:12:01.078Z,92.65
2018-12-30T01:13:00.252Z,92.74
2018-12-30T01:13:59.864Z,92.85
2018-12-30T01:14:59.783Z,92.84
2018-12-30T01:15:59.783Z,92.83
2018-12-30T01:17:00.631Z,92.91
2018-12-30T01:18:00.025Z,92.9
2018-12-30T01:19:00.030Z,92.92
2018-12-30T01:20:00.574Z,93.01
2018-12-30T01:21:00.613Z,92.97
2018-12-30T01:21:59.950Z,93.01
2018-12-30T01:23:00.115Z,93.03
2018-12-30T01:23:59.916Z,93.01
2018-12-30T01:25:00.383Z,93
2018-12-30T01:26:00.127Z,92.98
2018-12-30T01:26:59.986Z,93
2018-12-30T01:28:00.533Z,92.96
2018-12-30T01:28:59.838Z,92.95
2018-12-30T01:30:00.240Z,93.02
2018-12-30T01:31:00.595Z,93.05
2018-12-30T01:31:59.882Z,93.05
2018-12-30T01:32:59.708Z,92.99
2018-12-30T01:34:00.355Z,92.99
2018-12-30T01:34:59.746Z,93.03
2018-12-30T01:36:00.093Z,93.05
2018-12-30T01:37:00.774Z,93.05
2018-12-30T01:37:59.904Z,93.06
2018-12-30T01:38:59.718Z,92.96
2018-12-30T01:39:59.854Z,92.95
2018-12-30T01:41:00.132Z,92.96
2018-12-30T01:42:00.092Z,93
2018-12-30T01:43:00.451Z,92.99
2018-12-30T01:44:00.094Z,92.94
2018-12-30T01:45:00.483Z,92.95
2018-12-30T01:45:59.773Z,92.96
2018-12-30T01:46:59.779Z,92.95
2018-12-30T01:48:00.090Z,92.87
2018-12-30T01:48:59.838Z,92.83
2018-12-30T01:50:00.546Z,92.82
2018-12-30T01:50:59.635Z,92.83
2018-12-30T01:51:59.764Z,92.81
2018-12-30T01:52:59.643Z,92.79
2018-12-30T01:54:00.571Z,92.79
2018-12-30T01:54:59.874Z,92.77
2018-12-30T01:56:00.079Z,92.71
2018-12-30T01:56:59.893Z,92.67
2018-12-30T01:57:59.682Z,92.61
2018-12-30T01:58:59.784Z,92.67
2018-12-30T01:59:59.974Z,92.67
2018-12-30T02:01:00.128Z,92.64
2018-12-30T02:02:00.214Z,92.68
2018-12-30T02:02:59.929Z,92.64
2018-12-30T02:03:59.747Z,92.55
2018-12-30T02:04:59.793Z,92.57
2018-12-30T02:05:59.635Z,92.63
2018-12-30T02:06:59.649Z,92.68
2018-12-30T02:07:59.751Z,92.59
2018-12-30T02:08:59.917Z,92.55
2018-12-30T02:09:59.700Z,92.53
2018-12-30T02:11:00.546Z,92.61
2018-12-30T02:11:59.738Z,92.55
2018-12-30T02:12:59.637Z,92.55
2018-12-30T02:13:59.695Z,92.54
2018-12-30T02:14:59.668Z,92.61
2018-12-30T02:15:59.838Z,92.6
2018-12-30T02:17:00.104Z,92.67
2018-12-30T02:17:59.688Z,92.57
2018-12-30T02:18:59.558Z,92.58
2018-12-30T02:19:59.832Z,92.53
2018-12-30T02:20:59.810Z,92.53
2018-12-30T02:21:59.628Z,92.47
2018-12-30T02:23:00.043Z,92.56
2018-12-30T02:23:59.736Z,92.53
2018-12-30T02:24:59.740Z,92.51
2018-12-30T02:25:59.705Z,92.52
2018-12-30T02:26:59.666Z,92.54
2018-12-30T02:27:59.865Z,92.61
2018-12-30T02:28:59.813Z,92.58
2018-12-30T02:30:00.394Z,92.51
2018-12-30T02:30:59.695Z,92.51
2018-12-30T02:31:59.582Z,92.57
2018-12-30T02:32:59.890Z,92.61
2018-12-30T02:33:59.865Z,92.57
2018-12-30T02:35:00.195Z,92.53
2018-12-30T02:35:59.678Z,92.55
2018-12-30T02:37:00.343Z,92.58
2018-12-30T02:37:59.697Z,92.64
2018-12-30T02:38:59.783Z,92.66
2018-12-30T02:39:59.830Z,92.58
2018-12-30T02:40:59.736Z,92.65
2018-12-30T02:41:59.810Z,92.66
2018-12-30T02:42:59.752Z,92.64
2018-12-30T02:43:59.840Z,92.64
2018-12-30T02:44:59.781Z,92.66
2018-12-30T02:46:00.388Z,92.7
2018-12-30T02:47:00.048Z,92.69
2018-12-30T02:47:59.544Z,92.61
2018-12-30T02:49:00.371Z,92.71
2018-12-30T02:49:59.769Z,92.75
2018-12-30T02:51:00.296Z,92.81
2018-12-30T02:51:59.771Z,92.91
2018-12-30T02:52:59.620Z,92.94
2018-12-30T02:53:59.643Z,92.94
2018-12-30T02:55:00.479Z,92.88
2018-12-30T02:55:59.786Z,92.91
2018-12-30T02:56:59.631Z,92.87
2018-12-30T02:57:59.714Z,92.88
2018-12-30T02:58:59.752Z,92.98
2018-12-30T02:59:59.642Z,92.98
2018-12-30T03:01:00.188Z,92.95
2018-12-30T03:01:59.958Z,92.92
2018-12-30T03:02:59.948Z,92.87
2018-12-30T03:04:00.488Z,92.78
2018-12-30T03:04:59.655Z,92.77
2018-12-30T03:05:59.749Z,92.86
2018-12-30T03:06:59.672Z,92.94
2018-12-30T03:07:59.527Z,92.81
2018-12-30T03:08:59.772Z,92.82
2018-12-30T03:09:59.597Z,92.87
2018-12-30T03:10:59.491Z,92.91
2018-12-30T03:11:59.624Z,92.89
2018-12-30T03:13:01.081Z,92.94
2018-12-30T03:13:59.741Z,92.84
2018-12-30T03:14:59.742Z,92.84
2018-12-30T03:15:59.688Z,92.85
2018-12-30T03:17:00.385Z,92.95
2018-12-30T03:17:59.693Z,92.92
2018-12-30T03:18:59.649Z,92.78
2018-12-30T03:20:00.393Z,92.79
2018-12-30T03:20:59.739Z,92.85
2018-12-30T03:22:00.251Z,92.78
2018-12-30T03:22:59.666Z,92.8
2018-12-30T03:23:59.496Z,92.85
2018-12-30T03:24:59.656Z,92.87
2018-12-30T03:25:59.681Z,92.91
2018-12-30T03:26:59.703Z,92.91
2018-12-30T03:27:59.514Z,92.92
2018-12-30T03:28:59.504Z,92.9
2018-12-30T03:29:59.491Z,92.87
2018-12-30T03:30:59.551Z,92.85
2018-12-30T03:31:59.571Z,92.89
2018-12-30T03:32:59.638Z,92.92
2018-12-30T03:33:59.761Z,92.96
2018-12-30T03:34:59.610Z,92.91
2018-12-30T03:35:59.463Z,92.92
2018-12-30T03:36:59.509Z,92.95
2018-12-30T03:37:59.734Z,93
2018-12-30T03:38:59.471Z,92.94
2018-12-30T03:39:59.653Z,92.9
2018-12-30T03:40:59.557Z,92.93
2018-12-30T03:41:59.507Z,92.91
2018-12-30T03:42:59.477Z,92.9
2018-12-30T03:43:59.882Z,92.86
2018-12-30T03:44:59.549Z,92.9
2018-12-30T03:45:59.564Z,92.93
2018-12-30T03:46:59.475Z,92.99
2018-12-30T03:47:59.545Z,92.97
2018-12-30T03:48:59.585Z,92.87
2018-12-30T03:49:59.493Z,92.9
2018-12-30T03:50:59.743Z,92.95
2018-12-30T03:52:09.011Z,93.01
2018-12-30T03:52:59.463Z,92.92
2018-12-30T03:53:59.455Z,92.84
2018-12-30T03:54:59.529Z,92.84
2018-12-30T03:55:59.533Z,92.8
2018-12-30T03:56:59.509Z,92.88
2018-12-30T03:57:59.497Z,92.83
2018-12-30T03:58:59.490Z,92.79
2018-12-30T03:59:59.369Z,92.86
2018-12-30T04:00:59.427Z,92.96
2018-12-30T04:01:59.514Z,92.87
2018-12-30T04:02:59.421Z,92.94
2018-12-30T04:03:59.409Z,92.86
2018-12-30T04:04:59.975Z,92.89
2018-12-30T04:05:59.437Z,92.98
2018-12-30T04:06:59.380Z,92.91
2018-12-30T04:07:59.488Z,92.95
2018-12-30T04:08:59.571Z,93.03
2018-12-30T04:09:59.406Z,92.95
2018-12-30T04:10:59.608Z,92.99
2018-12-30T04:12:00.404Z,92.94
2018-12-30T04:12:59.539Z,92.95
2018-12-30T04:13:59.615Z,92.97
2018-12-30T04:14:59.490Z,93.01
2018-12-30T04:15:59.526Z,93
2018-12-30T04:16:59.575Z,92.97
2018-12-30T04:17:59.625Z,93.05
2018-12-30T04:18:59.754Z,93.1
2018-12-30T04:19:59.526Z,93.12
2018-12-30T04:20:59.531Z,93.08
2018-12-30T04:21:59.663Z,92.94
2018-12-30T04:22:59.482Z,93.05
2018-12-30T04:23:59.842Z,93.06
2018-12-30T04:24:59.778Z,93.09
2018-12-30T04:25:59.508Z,93.11
2018-12-30T04:26:59.524Z,93.19
2018-12-30T04:27:59.791Z,93.09
2018-12-30T04:28:59.742Z,93.1
2018-12-30T04:29:59.474Z,93.15
2018-12-30T04:30:59.488Z,93.25
2018-12-30T04:31:59.571Z,93.26
2018-12-30T04:32:59.530Z,93.24
2018-12-30T04:33:59.613Z,93.24
2018-12-30T04:34:59.502Z,93.21
2018-12-30T04:35:59.523Z,93.22
2018-12-30T04:36:59.509Z,93.24
2018-12-30T04:37:59.547Z,93.28
2018-12-30T04:38:59.474Z,93.23
2018-12-30T04:39:59.582Z,93.29
2018-12-30T04:40:59.571Z,93.26
2018-12-30T04:41:59.564Z,93.25
2018-12-30T04:43:00.230Z,93.25
2018-12-30T04:43:59.620Z,93.27
2018-12-30T04:44:59.442Z,93.29
2018-12-30T04:45:59.687Z,93.38
2018-12-30T04:46:59.462Z,93.39
2018-12-30T04:47:59.583Z,93.41
2018-12-30T04:48:59.559Z,93.33
2018-12-30T04:49:59.446Z,93.28
2018-12-30T04:50:59.395Z,93.4
2018-12-30T04:51:59.664Z,93.38
2018-12-30T04:52:59.737Z,93.42
2018-12-30T04:53:59.510Z,93.39
2018-12-30T04:54:59.485Z,93.39
2018-12-30T04:55:59.575Z,93.38
2018-12-30T04:56:59.686Z,93.25
2018-12-30T04:57:59.456Z,93.32
2018-12-30T04:58:59.457Z,93.23
2018-12-30T04:59:59.830Z,93.25
2018-12-30T05:01:00.244Z,93.27
2018-12-30T05:01:59.570Z,93.28
2018-12-30T05:02:59.387Z,93.33
2018-12-30T05:03:59.362Z,93.25
2018-12-30T05:04:59.490Z,93.28
2018-12-30T05:05:59.509Z,93.19
2018-12-30T05:06:59.356Z,93.16
2018-12-30T05:07:59.434Z,93.34
2018-12-30T05:08:59.368Z,93.29
2018-12-30T05:09:59.449Z,93.27
2018-12-30T05:10:59.467Z,93.17
2018-12-30T05:12:00.147Z,93.33
2018-12-30T05:12:59.492Z,93.27
2018-12-30T05:13:59.447Z,93.13
2018-12-30T05:14:59.590Z,93.22
2018-12-30T05:15:59.633Z,93.25
2018-12-30T05:16:59.776Z,93.14
2018-12-30T05:17:59.796Z,93.12
2018-12-30T05:18:59.611Z,93.12
2018-12-30T05:19:59.486Z,93.05
2018-12-30T05:20:59.379Z,93.12
2018-12-30T05:21:59.492Z,93.01
2018-12-30T05:22:59.557Z,92.98
2018-12-30T05:23:59.454Z,93.02
2018-12-30T05:24:59.629Z,93.05
2018-12-30T05:25:59.400Z,92.97
2018-12-30T05:26:59.390Z,92.97
2018-12-30T05:28:00.096Z,92.94
2018-12-30T05:28:59.630Z,92.89
2018-12-30T05:29:59.425Z,92.74
2018-12-30T05:30:59.420Z,92.53
2018-12-30T05:31:59.509Z,92.53
2018-12-30T05:32:59.827Z,92.52
2018-12-30T05:33:59.489Z,92.59
2018-12-30T05:34:59.667Z,92.53
2018-12-30T05:35:59.471Z,92.51
2018-12-30T05:37:00.058Z,92.38
2018-12-30T05:37:59.346Z,92.27
2018-12-30T05:38:59.428Z,92.27
2018-12-30T05:39:59.395Z,92.35
2018-12-30T05:40:59.403Z,92.31
2018-12-30T05:41:59.344Z,92.25
2018-12-30T05:42:59.608Z,92.19
2018-12-30T05:43:59.369Z,92.13
2018-12-30T05:44:59.431Z,92.06
2018-12-30T05:45:59.354Z,92.12
2018-12-30T05:46:59.599Z,92.01
2018-12-30T05:47:59.348Z,92.01
2018-12-30T05:48:59.423Z,92.02
2018-12-30T05:49:59.364Z,92.02
2018-12-30T05:50:59.421Z,92.04
2018-12-30T05:51:59.429Z,91.96
2018-12-30T05:52:59.357Z,91.84
2018-12-30T05:53:59.335Z,91.7
2018-12-30T05:54:59.331Z,91.52
2018-12-30T05:55:59.339Z,91.49
2018-12-30T05:56:59.414Z,91.55
2018-12-30T05:58:00.805Z,91.48
2018-12-30T05:58:59.324Z,91.51
2018-12-30T05:59:59.472Z,91.45
2018-12-30T06:00:59.308Z,91.37
2018-12-30T06:01:59.394Z,91.44
2018-12-30T06:02:59.388Z,91.5
2018-12-30T06:03:59.401Z,91.36
2018-12-30T06:05:00.173Z,91.45
2018-12-30T06:05:59.647Z,91.45
2018-12-30T06:06:59.385Z,91.53
2018-12-30T06:07:59.645Z,91.4
2018-12-30T06:08:59.365Z,91.42
2018-12-30T06:09:59.505Z,91.5
2018-12-30T06:10:59.961Z,91.49
2018-12-30T06:11:59.418Z,91.61
2018-12-30T06:12:59.518Z,91.57
2018-12-30T06:13:59.331Z,91.54
2018-12-30T06:14:59.425Z,91.58
2018-12-30T06:15:59.295Z,91.59
2018-12-30T06:16:59.707Z,91.64
2018-12-30T06:17:59.296Z,91.55
2018-12-30T06:18:59.385Z,91.55
2018-12-30T06:19:59.336Z,91.46
2018-12-30T06:20:59.444Z,91.39
2018-12-30T06:21:59.317Z,91.48
2018-12-30T06:22:59.368Z,91.59
2018-12-30T06:23:59.440Z,91.7
2018-12-30T06:25:00.041Z,91.74
2018-12-30T06:25:59.574Z,91.7
2018-12-30T06:26:59.515Z,91.69
2018-12-30T06:27:59.352Z,91.76
2018-12-30T06:28:59.510Z,91.82
2018-12-30T06:29:59.276Z,91.85
2018-12-30T06:30:59.470Z,91.88
2018-12-30T06:31:59.256Z,91.86
2018-12-30T06:32:59.436Z,91.91
2018-12-30T06:33:59.320Z,91.85
2018-12-30T06:34:59.480Z,91.79
2018-12-30T06:35:59.379Z,91.85
2018-12-30T06:36:59.790Z,91.84
2018-12-30T06:37:59.456Z,91.81
2018-12-30T06:38:59.307Z,91.83
2018-12-30T06:39:59.350Z,91.81
2018-12-30T06:40:59.423Z,91.8
2018-12-30T06:41:59.437Z,91.84
2018-12-30T06:42:59.475Z,91.85
2018-12-30T06:43:59.378Z,91.75
2018-12-30T06:44:59.309Z,91.62
2018-12-30T06:45:59.357Z,91.69
2018-12-30T06:46:59.585Z,91.68
2018-12-30T06:47:59.662Z,91.7
2018-12-30T06:48:59.685Z,91.74
2018-12-30T06:49:59.654Z,91.73
2018-12-30T06:50:59.393Z,91.64
2018-12-30T06:51:59.432Z,91.65
2018-12-30T06:52:59.303Z,91.7
2018-12-30T06:53:59.381Z,91.66
2018-12-30T06:54:59.371Z,91.68
2018-12-30T06:55:59.325Z,91.68
2018-12-30T06:56:59.232Z,91.69
2018-12-30T06:57:59.256Z,91.71
2018-12-30T06:58:59.178Z,91.71
2018-12-30T06:59:59.390Z,91.74
2018-12-30T07:00:59.259Z,91.65
2018-12-30T07:01:59.282Z,91.69
2018-12-30T07:02:59.327Z,91.64
2018-12-30T07:03:59.523Z,91.67
2018-12-30T07:04:59.340Z,91.64
2018-12-30T07:05:59.399Z,91.68
2018-12-30T07:06:59.308Z,91.68
2018-12-30T07:07:59.326Z,91.74
2018-12-30T07:09:03.632Z,91.73
2018-12-30T07:09:59.310Z,91.78
2018-12-30T07:10:59.367Z,91.79
2018-12-30T07:11:59.355Z,91.83
2018-12-30T07:12:59.346Z,91.8
2018-12-30T07:13:59.325Z,91.77
2018-12-30T07:14:59.478Z,91.8
2018-12-30T07:15:59.293Z,91.76
2018-12-30T07:16:59.430Z,91.81
2018-12-30T07:17:59.379Z,91.83
2018-12-30T07:18:59.419Z,91.76
2018-12-30T07:19:59.223Z,91.8
2018-12-30T07:20:59.268Z,91.77
2018-12-30T07:21:59.749Z,91.82
2018-12-30T07:23:06.351Z,91.79
2018-12-30T07:23:59.973Z,91.86
2018-12-30T07:24:59.330Z,91.84
2018-12-30T07:25:59.377Z,91.78
2018-12-30T07:26:59.372Z,91.81
2018-12-30T07:27:59.249Z,91.76
2018-12-30T07:28:59.244Z,91.67
2018-12-30T07:29:59.163Z,91.71
2018-12-30T07:30:59.311Z,91.77
2018-12-30T07:31:59.300Z,91.76
2018-12-30T07:32:59.228Z,91.77
2018-12-30T07:33:59.343Z,91.7
2018-12-30T07:34:59.215Z,91.77
2018-12-30T07:35:59.289Z,91.69
2018-12-30T07:36:59.245Z,91.74
2018-12-30T07:37:59.185Z,91.68
2018-12-30T07:38:59.272Z,91.69
2018-12-30T07:39:59.217Z,91.62
2018-12-30T07:40:59.119Z,91.59
2018-12-30T07:41:59.485Z,91.55
2018-12-30T07:42:59.210Z,91.52
2018-12-30T07:43:59.197Z,91.62
2018-12-30T07:44:59.223Z,91.67
2018-12-30T07:45:59.257Z,91.75
2018-12-30T07:46:59.536Z,91.51
2018-12-30T07:47:59.395Z,91.61
2018-12-30T07:48:59.381Z,91.48
2018-12-30T07:49:59.334Z,91.44
2018-12-30T07:50:59.255Z,91.62
2018-12-30T07:51:59.234Z,91.61
2018-12-30T07:52:59.298Z,91.49
2018-12-30T07:53:59.259Z,91.57
2018-12-30T07:54:59.244Z,91.53
2018-12-30T07:55:59.211Z,91.53
2018-12-30T07:56:59.301Z,91.5
2018-12-30T07:57:59.416Z,91.45
2018-12-30T07:58:59.279Z,91.45
2018-12-30T07:59:59.329Z,91.46
2018-12-30T08:00:59.312Z,91.41
2018-12-30T08:01:59.236Z,91.41
2018-12-30T08:02:59.137Z,91.4
2018-12-30T08:03:59.406Z,91.45
2018-12-30T08:04:59.179Z,91.32
2018-12-30T08:05:59.355Z,91.34
2018-12-30T08:06:59.235Z,91.21
2018-12-30T08:07:59.215Z,91.33
2018-12-30T08:08:59.296Z,91.32
2018-12-30T08:09:59.361Z,91.35
2018-12-30T08:10:59.234Z,91.4
2018-12-30T08:11:59.629Z,91.46
2018-12-30T08:12:59.328Z,91.45
2018-12-30T08:13:59.368Z,91.45
2018-12-30T08:14:59.348Z,91.42
2018-12-30T08:15:59.246Z,91.48
2018-12-30T08:16:59.292Z,91.46
2018-12-30T08:17:59.376Z,91.59
2018-12-30T08:18:59.929Z,91.61
2018-12-30T08:19:59.247Z,91.61
2018-12-30T08:20:59.256Z,91.63
2018-12-30T08:21:59.259Z,91.64
2018-12-30T08:22:59.305Z,91.72
2018-12-30T08:24:00.062Z,91.61
2018-12-30T08:24:59.259Z,91.56
2018-12-30T08:25:59.261Z,91.54
2018-12-30T08:26:59.170Z,91.3
2018-12-30T08:27:59.088Z,91.32
2018-12-30T08:28:59.128Z,91.39
2018-12-30T08:29:59.156Z,91.22
2018-12-30T08:30:59.338Z,91.21
2018-12-30T08:31:59.237Z,91.22
2018-12-30T08:32:59.541Z,91.04
2018-12-30T08:33:59.010Z,90.96
2018-12-30T08:34:59.343Z,90.71
2018-12-30T08:35:59.299Z,90.71
2018-12-30T08:36:59.151Z,90.78
2018-12-30T08:37:59.410Z,90.84
2018-12-30T08:38:59.369Z,90.88
2018-12-30T08:39:59.137Z,90.89
2018-12-30T08:40:59.367Z,90.84
2018-12-30T08:41:59.217Z,90.73
2018-12-30T08:42:59.105Z,90.76
2018-12-30T08:43:59.162Z,90.7
2018-12-30T08:44:59.532Z,90.66
2018-12-30T08:45:59.306Z,90.72
2018-12-30T08:46:59.243Z,90.67
2018-12-30T08:47:59.228Z,90.7
2018-12-30T08:48:59.222Z,90.71
2018-12-30T08:49:59.180Z,90.7
2018-12-30T08:50:59.182Z,90.62
2018-12-30T08:51:59.516Z,90.44
2018-12-30T08:52:59.683Z,90.42
2018-12-30T08:53:59.150Z,90.37
2018-12-30T08:54:59.159Z,90.48
2018-12-30T08:55:59.300Z,90.51
2018-12-30T08:56:59.108Z,90.34
2018-12-30T08:57:59.266Z,90.31
2018-12-30T08:58:59.493Z,90.45
2018-12-30T08:59:59.248Z,90.28
2018-12-30T09:00:59.018Z,90.35
2018-12-30T09:01:59.136Z,90.39
2018-12-30T09:02:59.224Z,90.47
2018-12-30T09:03:59.495Z,90.44
2018-12-30T09:04:59.116Z,90.39
2018-12-30T09:05:59.374Z,90.36
2018-12-30T09:06:59.541Z,90.28
2018-12-30T09:07:59.300Z,90.27
2018-12-30T09:09:02.842Z,90.21
2018-12-30T09:10:01.825Z,90.2
2018-12-30T09:11:00.156Z,90.3
2018-12-30T09:11:59.142Z,90.19
2018-12-30T09:12:59.388Z,90.28
2018-12-30T09:13:59.207Z,90.25
2018-12-30T09:14:59.270Z,90.03
2018-12-30T09:15:59.471Z,89.93
2018-12-30T09:16:59.059Z,90.05
2018-12-30T09:17:59.077Z,90.09
2018-12-30T09:18:59.077Z,90.03
2018-12-30T09:19:59.187Z,90.06
2018-12-30T09:21:02.132Z,89.81
2018-12-30T09:21:59.112Z,89.66
2018-12-30T09:22:59.087Z,89.82
2018-12-30T09:24:03.588Z,89.91
2018-12-30T09:24:59.034Z,89.94
2018-12-30T09:25:59.489Z,89.81
2018-12-30T09:26:58.989Z,89.74
2018-12-30T09:28:00.253Z,89.74
2018-12-30T09:28:59.657Z,89.8
2018-12-30T09:29:59.048Z,89.74
2018-12-30T09:30:59.126Z,89.76
2018-12-30T09:31:59.019Z,89.67
2018-12-30T09:32:59.156Z,89.57
2018-12-30T09:33:59.069Z,89.55
2018-12-30T09:34:59.217Z,89.69
2018-12-30T09:35:59.337Z,89.59
2018-12-30T09:36:59.350Z,89.54
2018-12-30T09:37:59.241Z,89.56
2018-12-30T09:38:59.266Z,89.45
2018-12-30T09:39:59.218Z,89.31
2018-12-30T09:40:59.072Z,89.41
2018-12-30T09:42:01.180Z,89.41
2018-12-30T09:42:59.137Z,89.34
2018-12-30T09:43:59.061Z,89.46
2018-12-30T09:44:59.177Z,89.45
2018-12-30T09:45:59.056Z,89.36
2018-12-30T09:46:59.492Z,89.22
2018-12-30T09:47:59.154Z,89.06
2018-12-30T09:48:59.029Z,89.16
2018-12-30T09:49:59.218Z,89.16
2018-12-30T09:50:59.792Z,89.03
2018-12-30T09:51:59.454Z,89.07
2018-12-30T09:52:59.211Z,89.02
2018-12-30T09:53:59.098Z,88.83
2018-12-30T09:54:59.120Z,88.87
2018-12-30T09:55:59.180Z,88.83
2018-12-30T09:56:59.180Z,88.8
2018-12-30T09:57:59.134Z,88.73
2018-12-30T09:58:59.061Z,88.38
2018-12-30T09:59:59.019Z,88.61
2018-12-30T10:00:59.243Z,88.49
2018-12-30T10:01:58.967Z,88.43
2018-12-30T10:02:59.187Z,88.48
2018-12-30T10:03:59.096Z,88.35
2018-12-30T10:04:59.115Z,88.43
2018-12-30T10:05:59.175Z,88.34
2018-12-30T10:06:59.320Z,88.21
2018-12-30T10:07:59.068Z,88.24
2018-12-30T10:08:59.031Z,87.92
2018-12-30T10:09:59.164Z,88.06
2018-12-30T10:10:59.148Z,87.92
2018-12-30T10:11:59.754Z,88.06
2018-12-30T10:12:59.441Z,88.14
2018-12-30T10:13:59.018Z,88.29
2018-12-30T10:15:10.339Z,88.28
2018-12-30T10:15:59.151Z,88.06
2018-12-30T10:16:59.045Z,87.93
2018-12-30T10:17:59.033Z,88.07
2018-12-30T10:18:59.737Z,87.83
2018-12-30T10:19:58.974Z,87.79
2018-12-30T10:20:58.988Z,87.94
2018-12-30T10:21:59.298Z,88.05
2018-12-30T10:22:59.187Z,87.73
2018-12-30T10:23:59.047Z,87.62
2018-12-30T10:24:59.106Z,87.45
2018-12-30T10:25:59.263Z,87.52
2018-12-30T10:26:59.032Z,87.56
2018-12-30T10:27:59.067Z,87.66
2018-12-30T10:29:04.390Z,87.53
2018-12-30T10:29:59.070Z,87.79
2018-12-30T10:30:59.127Z,87.53
2018-12-30T10:31:59.205Z,87.45
2018-12-30T10:32:59.072Z,87.43
2018-12-30T10:33:59.131Z,87.56
2018-12-30T10:34:58.910Z,87.52
2018-12-30T10:35:58.986Z,87.47
2018-12-30T10:36:59.397Z,87.65
2018-12-30T10:37:59.203Z,87.67
2018-12-30T10:38:59.074Z,87.65
2018-12-30T10:39:58.899Z,87.49
2018-12-30T10:40:59.114Z,87.44
2018-12-30T10:41:59.498Z,87.12
2018-12-30T10:42:59.268Z,87.25
2018-12-30T10:43:59.204Z,87.23
2018-12-30T10:44:59.089Z,87.16
2018-12-30T10:45:59.090Z,87.31
2018-12-30T10:46:58.900Z,87.23
2018-12-30T10:47:58.887Z,87.2
2018-12-30T10:48:59.120Z,87.12
2018-12-30T10:49:59.039Z,87.15
2018-12-30T10:50:59.248Z,87.12
2018-12-30T10:51:58.952Z,87.19
2018-12-30T10:52:59.131Z,87.22
2018-12-30T10:54:01.039Z,87.32
2018-12-30T10:54:59.698Z,87.15
2018-12-30T10:55:59.108Z,87.08
2018-12-30T10:56:59.288Z,87.03
2018-12-30T10:57:59.102Z,87.11
2018-12-30T10:58:59.304Z,87.34
2018-12-30T10:59:59.218Z,87.35
2018-12-30T11:00:58.887Z,87.09
2018-12-30T11:01:59.277Z,87.24
2018-12-30T11:02:59.143Z,87.36
2018-12-30T11:03:59.168Z,87.33
2018-12-30T11:04:59.289Z,87.38
2018-12-30T11:05:59.144Z,87.13
2018-12-30T11:06:59.522Z,87.17
2018-12-30T11:07:59.324Z,87.28
2018-12-30T11:08:59.114Z,87.3
2018-12-30T11:09:59.115Z,87.31
2018-12-30T11:10:59.609Z,87.26
2018-12-30T11:11:59.235Z,87.31
2018-12-30T11:12:59.252Z,87.26
2018-12-30T11:13:59.187Z,87.04
2018-12-30T11:14:59.357Z,87.15
2018-12-30T11:15:59.545Z,87.21
2018-12-30T11:16:59.152Z,87.05
2018-12-30T11:17:58.998Z,87.17
2018-12-30T11:18:58.883Z,87.08
2018-12-30T11:19:59.285Z,86.95
2018-12-30T11:20:59.240Z,87.26
2018-12-30T11:21:59.042Z,87.12
2018-12-30T11:22:59.168Z,86.96
2018-12-30T11:23:59.719Z,86.88
2018-12-30T11:24:59.405Z,87.05
2018-12-30T11:25:59.731Z,87.19
2018-12-30T11:26:59.072Z,87.01
2018-12-30T11:27:59.411Z,86.9
2018-12-30T11:28:58.950Z,86.98
2018-12-30T11:29:59.193Z,86.87
2018-12-30T11:30:59.237Z,87.1
2018-12-30T11:31:59.071Z,87.14
2018-12-30T11:32:58.979Z,87.15
2018-12-30T11:33:58.873Z,87.25
2018-12-30T11:34:58.958Z,87.08
2018-12-30T11:35:59.306Z,87.02
2018-12-30T11:36:59.104Z,87.12
2018-12-30T11:38:00.767Z,87.03
2018-12-30T11:38:59.267Z,86.81
2018-12-30T11:39:59.100Z,86.69
2018-12-30T11:40:59.054Z,86.8
2018-12-30T11:41:59.095Z,86.87
2018-12-30T11:42:59.094Z,86.91
2018-12-30T11:43:59.004Z,86.76
2018-12-30T11:44:59.838Z,86.53
2018-12-30T11:45:59.062Z,86.41
2018-12-30T11:46:59.087Z,86.48
2018-12-30T11:47:58.810Z,86.45
2018-12-30T11:48:59.022Z,86.39
2018-12-30T11:49:58.865Z,86.53
2018-12-30T11:50:58.936Z,86.72
2018-12-30T11:51:58.828Z,86.5
2018-12-30T11:52:59.160Z,86.17
2018-12-30T11:53:59.251Z,86.22
2018-12-30T11:54:59.001Z,86.27
2018-12-30T11:55:58.991Z,86.43
2018-12-30T11:56:59.170Z,86.41
2018-12-30T11:57:58.844Z,86.55
2018-12-30T11:58:59.343Z,86.26
2018-12-30T11:59:59.633Z,86.54
2018-12-30T12:00:58.920Z,86.48
2018-12-30T12:01:59.070Z,86.4
2018-12-30T12:02:58.992Z,86.64
2018-12-30T12:03:59.414Z,86.72
2018-12-30T12:04:59.128Z,86.84
2018-12-30T12:05:59.166Z,86.82
2018-12-30T12:06:59.093Z,86.75
2018-12-30T12:07:59.148Z,86.64
2018-12-30T12:08:58.850Z,86.35
2018-12-30T12:09:58.805Z,86.35
2018-12-30T12:10:58.951Z,86.5
2018-12-30T12:11:59.075Z,86.59
2018-12-30T12:12:59.231Z,86.52
2018-12-30T12:13:59.053Z,86.42
2018-12-30T12:14:58.842Z,86.5
2018-12-30T12:15:59.141Z,86.41
2018-12-30T12:16:58.941Z,86.62
2018-12-30T12:17:59.142Z,86.52
2018-12-30T12:18:58.836Z,86.52
2018-12-30T12:19:59.098Z,86.66
2018-12-30T12:20:59.087Z,86.7
2018-12-30T12:21:58.928Z,86.69
2018-12-30T12:22:58.907Z,86.72
2018-12-30T12:23:59.212Z,86.69
2018-12-30T12:24:58.940Z,86.49
2018-12-30T12:26:01.764Z,86.57
2018-12-30T12:26:59.123Z,86.5
2018-12-30T12:27:58.954Z,86.38
2018-12-30T12:28:59.109Z,86.38
2018-12-30T12:29:58.978Z,86.33
2018-12-30T12:30:59.113Z,86.16
2018-12-30T12:31:58.861Z,86.27
2018-12-30T12:32:59.274Z,86.09
2018-12-30T12:33:58.877Z,86.1
2018-12-30T12:34:58.824Z,86.06
2018-12-30T12:35:58.833Z,86.28
2018-12-30T12:36:58.878Z,86.25
2018-12-30T12:37:59.115Z,86.14
2018-12-30T12:38:59.672Z,86.27
2018-12-30T12:39:58.899Z,86.14
2018-12-30T12:40:59.103Z,86.13
2018-12-30T12:41:58.822Z,86.15
2018-12-30T12:42:59.493Z,86.17
2018-12-30T12:43:59.352Z,86.16
2018-12-30T12:44:58.771Z,86.22
2018-12-30T12:45:59.034Z,86.18
2018-12-30T12:46:59.024Z,86.08
2018-12-30T12:47:59.160Z,86.18
2018-12-30T12:48:59.122Z,86.21
2018-12-30T12:49:59.196Z,86.08
2018-12-30T12:50:58.860Z,86.08
2018-12-30T12:51:58.906Z,86
2018-12-30T12:52:58.898Z,85.83
2018-12-30T12:53:58.904Z,86.04
2018-12-30T12:54:59.131Z,86.16